Time;durP1;ratioP1;P1;durP2;ratioP2;P2;SDS_P1;SDS_P2;PMS_P1;PMS_P2;Temp;Humidity;BMP_temperature;BMP_pressure;BME280_temperature;BME280_humidity;BME280_pressure;Samples;Min_cycle;Max_cycle;Signal;HPM_P1;HPM_P2
2021/10/22 00:00:35;;;;;;;23.08;10.55;;;;;;;;;;5051324;28;20515;-64
2021/10/22 00:03:01;;;;;;;17.48;9.95;;;;;;;;;;5052247;28;20037;-64
2021/10/22 00:05:27;;;;;;;19.25;10.48;;;;;;;;;;5053326;28;20048;-64
2021/10/22 00:07:53;;;;;;;20.08;10.65;;;;;;;;;;5050608;28;20099;-64
2021/10/22 00:10:19;;;;;;;21.90;10.43;;;;;;;;;;5051056;28;20029;-64
2021/10/22 00:12:45;;;;;;;18.88;9.90;;;;;;;;;;5051135;28;20017;-64
2021/10/22 00:15:11;;;;;;;24.85;10.68;;;;;;;;;;5050582;28;20112;-64
2021/10/22 00:17:38;;;;;;;20.38;10.00;;;;;;;;;;5054083;28;20112;-64
2021/10/22 00:20:05;;;;;;;21.83;10.70;;;;;;;;;;5052777;28;20521;-64
2021/10/22 00:22:32;;;;;;;18.33;9.77;;;;;;;;;;5050624;28;20108;-64
2021/10/22 00:24:58;;;;;;;21.15;9.77;;;;;;;;;;5050451;28;20320;-64
2021/10/22 00:27:24;;;;;;;20.13;8.45;;;;;;;;;;5049210;28;20029;-64
2021/10/22 00:29:50;;;;;;;15.75;8.77;;;;;;;;;;5053132;28;20028;-64
2021/10/22 00:32:16;;;;;;;14.65;8.02;;;;;;;;;;5051801;28;20032;-64
2021/10/22 00:34:42;;;;;;;20.98;8.27;;;;;;;;;;5049972;28;20037;-64
2021/10/22 00:37:07;;;;;;;17.75;8.32;;;;;;;;;;5048929;28;20115;-64
2021/10/22 00:39:33;;;;;;;19.60;9.20;;;;;;;;;;5050546;28;20480;-64
2021/10/22 00:42:00;;;;;;;18.48;9.13;;;;;;;;;;5051719;28;20044;-64
2021/10/22 00:44:26;;;;;;;18.73;8.88;;;;;;;;;;5052158;28;20028;-64
2021/10/22 00:46:55;;;;;;;21.30;10.27;;;;;;;;;;5049924;28;20078;-64
2021/10/22 00:49:21;;;;;;;18.90;8.10;;;;;;;;;;5050166;28;20033;-64
2021/10/22 00:51:48;;;;;;;17.73;8.30;;;;;;;;;;5051333;28;20025;-64
2021/10/22 00:54:14;;;;;;;20.65;8.27;;;;;;;;;;5050450;28;20064;-64
2021/10/22 00:56:40;;;;;;;16.38;8.57;;;;;;;;;;5052831;28;20401;-68
2021/10/22 00:59:07;;;;;;;17.60;8.32;;;;;;;;;;5049604;28;20021;-68
2021/10/22 01:01:38;;;;;;;22.73;8.95;;;;;;;;;;5049981;28;20108;-68
2021/10/22 01:04:04;;;;;;;17.80;8.63;;;;;;;;;;5049750;28;20025;-68
2021/10/22 01:06:30;;;;;;;16.60;8.02;;;;;;;;;;5050219;28;20119;-68
2021/10/22 01:08:57;;;;;;;18.98;7.88;;;;;;;;;;5051288;28;20476;-68
2021/10/22 01:11:23;;;;;;;15.50;7.20;;;;;;;;;;5052218;28;20025;-68
2021/10/22 01:13:50;;;;;;;16.38;8.07;;;;;;;;;;5049722;28;20036;-68
2021/10/22 01:16:16;;;;;;;15.55;7.70;;;;;;;;;;5049488;28;20090;-68
2021/10/22 01:18:42;;;;;;;19.08;8.30;;;;;;;;;;5049261;28;20357;-68
2021/10/22 01:21:08;;;;;;;30.70;7.85;;;;;;;;;;5049824;28;20025;-68
2021/10/22 01:23:34;;;;;;;14.65;7.00;;;;;;;;;;5053382;28;20053;-68
2021/10/22 01:26:00;;;;;;;12.90;7.57;;;;;;;;;;5048624;28;20036;-68
2021/10/22 01:28:27;;;;;;;13.57;7.53;;;;;;;;;;5049527;28;20029;-68
2021/10/22 01:30:53;;;;;;;11.35;6.28;;;;;;;;;;5050637;28;20062;-68
2021/10/22 01:33:20;;;;;;;12.60;6.22;;;;;;;;;;5048880;28;20054;-68
2021/10/22 01:35:47;;;;;;;13.60;6.50;;;;;;;;;;5051731;28;20124;-68
2021/10/22 01:38:14;;;;;;;14.98;6.35;;;;;;;;;;5049421;28;20488;-68
2021/10/22 01:40:40;;;;;;;11.90;6.20;;;;;;;;;;5048922;28;20530;-68
2021/10/22 01:43:06;;;;;;;12.77;5.38;;;;;;;;;;5049067;28;20033;-68
2021/10/22 01:45:32;;;;;;;16.60;5.65;;;;;;;;;;5049062;28;20021;-68
2021/10/22 01:47:58;;;;;;;13.00;5.88;;;;;;;;;;5050383;28;20036;-68
2021/10/22 01:50:24;;;;;;;12.20;5.30;;;;;;;;;;5051350;28;20060;-68
2021/10/22 01:52:50;;;;;;;12.57;5.97;;;;;;;;;;5049019;28;20114;-68
2021/10/22 01:55:16;;;;;;;11.23;5.38;;;;;;;;;;5049085;28;20065;-68
2021/10/22 01:57:42;;;;;;;14.05;5.75;;;;;;;;;;5048128;28;20456;-68
2021/10/22 02:00:09;;;;;;;32.60;6.10;;;;;;;;;;5049053;28;20147;-68
2021/10/22 02:02:35;;;;;;;28.50;5.90;;;;;;;;;;5052377;28;20484;-68
2021/10/22 02:05:01;;;;;;;9.82;5.43;;;;;;;;;;5048676;28;20032;-68
2021/10/22 02:07:28;;;;;;;10.80;5.47;;;;;;;;;;5048587;28;20033;-68
2021/10/22 02:09:54;;;;;;;10.18;5.57;;;;;;;;;;5049870;28;20017;-68
2021/10/22 02:12:20;;;;;;;14.70;5.97;;;;;;;;;;5048815;28;20396;-68
2021/10/22 02:14:46;;;;;;;13.75;5.88;;;;;;;;;;5051152;28;20028;-68
2021/10/22 02:17:12;;;;;;;14.60;6.25;;;;;;;;;;5049453;28;20078;-68
2021/10/22 02:19:38;;;;;;;11.45;5.88;;;;;;;;;;5048269;28;20408;-68
2021/10/22 02:22:04;;;;;;;16.17;6.25;;;;;;;;;;5047740;28;20025;-68
2021/10/22 02:24:30;;;;;;;10.98;4.85;;;;;;;;;;5048605;28;20025;-68
2021/10/22 02:26:56;;;;;;;11.02;4.75;;;;;;;;;;5058442;28;20381;-68
2021/10/22 02:29:22;;;;;;;8.77;4.07;;;;;;;;;;5050698;28;20491;-68
2021/10/22 02:31:48;;;;;;;9.80;4.25;;;;;;;;;;5047266;28;20043;-68
2021/10/22 02:34:14;;;;;;;24.77;5.15;;;;;;;;;;5048139;28;20048;-68
2021/10/22 02:36:40;;;;;;;10.35;5.70;;;;;;;;;;5048317;28;20033;-68
2021/10/22 02:39:06;;;;;;;11.48;5.40;;;;;;;;;;5048446;28;20473;-68
2021/10/22 02:41:32;;;;;;;9.32;4.60;;;;;;;;;;5051914;28;20451;-68
2021/10/22 02:43:58;;;;;;;10.52;5.32;;;;;;;;;;5047548;28;20036;-68
2021/10/22 02:46:24;;;;;;;13.95;5.43;;;;;;;;;;5047997;28;20159;-68
2021/10/22 02:48:50;;;;;;;9.82;4.68;;;;;;;;;;5047971;28;20652;-68
2021/10/22 02:51:17;;;;;;;10.48;4.80;;;;;;;;;;5048279;28;20485;-68
2021/10/22 02:53:43;;;;;;;11.65;4.68;;;;;;;;;;5050415;28;20692;-68
2021/10/22 02:56:09;;;;;;;9.38;4.53;;;;;;;;;;5059301;28;20047;-68
2021/10/22 02:58:35;;;;;;;10.70;4.00;;;;;;;;;;5051851;28;20040;-70
2021/10/22 03:01:01;;;;;;;11.48;4.38;;;;;;;;;;5047489;28;20025;-67
2021/10/22 03:03:27;;;;;;;10.65;4.30;;;;;;;;;;5048157;28;20389;-68
2021/10/22 03:05:53;;;;;;;12.20;4.25;;;;;;;;;;5050207;28;20035;-68
2021/10/22 03:08:19;;;;;;;7.05;3.53;;;;;;;;;;5053985;28;20369;-68
2021/10/22 03:10:45;;;;;;;10.48;3.92;;;;;;;;;;5051815;28;20040;-70
2021/10/22 03:13:11;;;;;;;5.97;3.20;;;;;;;;;;5052138;28;20021;-69
2021/10/22 03:15:37;;;;;;;12.65;3.97;;;;;;;;;;5052008;28;20021;-69
2021/10/22 03:18:03;;;;;;;6.85;3.60;;;;;;;;;;5051225;28;20025;-69
2021/10/22 03:20:29;;;;;;;7.95;3.47;;;;;;;;;;5054685;28;20495;-69
2021/10/22 03:22:55;;;;;;;7.45;3.55;;;;;;;;;;5051723;28;20033;-69
2021/10/22 03:25:21;;;;;;;7.88;3.58;;;;;;;;;;5046191;28;20025;-69
2021/10/22 03:27:48;;;;;;;8.05;3.22;;;;;;;;;;5053186;28;20139;-69
2021/10/22 03:30:14;;;;;;;11.38;3.83;;;;;;;;;;5051626;28;20021;-69
2021/10/22 03:32:40;;;;;;;13.32;4.00;;;;;;;;;;5053906;28;20121;-68
2021/10/22 03:35:06;;;;;;;8.40;3.70;;;;;;;;;;5052189;28;20452;-70
2021/10/22 03:37:33;;;;;;;7.90;3.67;;;;;;;;;;5053447;28;20408;-70
2021/10/22 03:40:01;;;;;;;8.07;3.30;;;;;;;;;;5053202;28;20096;-70
2021/10/22 03:42:29;;;;;;;7.05;3.40;;;;;;;;;;5053054;28;20025;-70
2021/10/22 03:44:55;;;;;;;6.63;3.10;;;;;;;;;;5052073;28;20048;-69
2021/10/22 03:47:22;;;;;;;8.10;3.30;;;;;;;;;;5053211;28;20465;-69
2021/10/22 03:49:49;;;;;;;7.15;2.80;;;;;;;;;;5051638;28;20448;-69
2021/10/22 03:52:15;;;;;;;6.25;2.83;;;;;;;;;;5050056;28;20029;-69
2021/10/22 03:54:41;;;;;;;6.07;2.80;;;;;;;;;;5051370;28;20071;-69
2021/10/22 03:57:06;;;;;;;8.07;3.38;;;;;;;;;;5050640;28;20052;-69
2021/10/22 03:59:33;;;;;;;10.88;3.60;;;;;;;;;;5054565;28;20066;-69
2021/10/22 04:01:59;;;;;;;8.23;2.60;;;;;;;;;;5050969;28;20032;-69
2021/10/22 04:04:28;;;;;;;6.85;2.40;;;;;;;;;;5051176;28;20029;-69
2021/10/22 04:06:56;;;;;;;4.93;2.50;;;;;;;;;;5050458;28;20031;-69
2021/10/22 04:09:22;;;;;;;16.73;2.88;;;;;;;;;;5051131;28;20022;-69
2021/10/22 04:11:48;;;;;;;4.63;2.60;;;;;;;;;;5053203;28;20107;-68
2021/10/22 04:14:14;;;;;;;8.52;3.33;;;;;;;;;;5051793;28;20104;-69
2021/10/22 04:16:40;;;;;;;6.72;3.20;;;;;;;;;;5050421;28;20029;-69
2021/10/22 04:19:06;;;;;;;6.50;2.88;;;;;;;;;;5049393;28;20033;-69
2021/10/22 04:21:32;;;;;;;8.93;3.08;;;;;;;;;;5050628;28;20515;-68
2021/10/22 04:23:58;;;;;;;10.90;3.28;;;;;;;;;;5052305;28;20071;-69
2021/10/22 04:26:24;;;;;;;6.82;3.03;;;;;;;;;;5052493;28;20255;-69
2021/10/22 04:28:50;;;;;;;8.98;3.35;;;;;;;;;;5050743;28;20033;-69
2021/10/22 04:31:16;;;;;;;5.55;2.80;;;;;;;;;;5050064;28;20392;-69
2021/10/22 04:33:42;;;;;;;9.23;3.15;;;;;;;;;;5050490;28;20083;-69
2021/10/22 04:36:11;;;;;;;5.05;2.45;;;;;;;;;;5050548;28;20033;-69
2021/10/22 04:41:21;;;;;;;10.98;3.00;;;;;;;;;;5052017;28;20044;-69
2021/10/22 04:43:51;;;;;;;5.55;2.63;;;;;;;;;;5050441;28;20024;-69
2021/10/22 04:46:18;;;;;;;7.25;3.15;;;;;;;;;;5050440;28;20384;-69
2021/10/22 04:48:45;;;;;;;7.53;2.90;;;;;;;;;;5049867;28;20029;-69
2021/10/22 04:51:11;;;;;;;9.07;2.80;;;;;;;;;;5050003;28;20028;-69
2021/10/22 04:53:37;;;;;;;5.55;2.72;;;;;;;;;;5053863;28;20017;-69
2021/10/22 04:56:03;;;;;;;8.77;3.10;;;;;;;;;;5048901;28;20090;-69
2021/10/22 04:58:29;;;;;;;13.30;3.22;;;;;;;;;;5049667;28;20032;-69
2021/10/22 05:00:55;;;;;;;5.68;2.88;;;;;;;;;;5049929;28;20060;-69
2021/10/22 05:03:21;;;;;;;6.95;3.38;;;;;;;;;;5050035;28;20053;-70
2021/10/22 05:05:47;;;;;;;11.15;3.60;;;;;;;;;;5052015;28;20074;-69
2021/10/22 05:08:14;;;;;;;10.18;3.60;;;;;;;;;;5051266;28;20431;-69
2021/10/22 05:10:40;;;;;;;8.00;3.15;;;;;;;;;;5048145;28;20477;-69
2021/10/22 05:13:06;;;;;;;8.05;3.03;;;;;;;;;;5049302;28;20117;-69
2021/10/22 05:15:32;;;;;;;11.57;3.55;;;;;;;;;;5049785;28;20051;-69
2021/10/22 05:17:58;;;;;;;8.50;3.58;;;;;;;;;;5050965;28;20085;-69
2021/10/22 05:20:24;;;;;;;6.10;2.88;;;;;;;;;;5051671;28;20056;-69
2021/10/22 05:22:50;;;;;;;6.13;3.20;;;;;;;;;;5049479;28;20039;-70
2021/10/22 05:25:17;;;;;;;6.97;2.97;;;;;;;;;;5049322;28;20061;-70
2021/10/22 05:27:43;;;;;;;9.52;3.22;;;;;;;;;;5049429;28;20510;-70
2021/10/22 05:30:10;;;;;;;7.63;2.63;;;;;;;;;;5049154;28;20029;-71
2021/10/22 05:32:36;;;;;;;4.63;2.72;;;;;;;;;;5052483;28;20409;-71
2021/10/22 05:35:02;;;;;;;5.97;3.30;;;;;;;;;;5048045;28;20468;-71
2021/10/22 05:37:28;;;;;;;8.73;3.33;;;;;;;;;;5048998;28;20033;-71
2021/10/22 05:39:55;;;;;;;11.98;2.72;;;;;;;;;;5049004;28;20499;-71
2021/10/22 05:42:22;;;;;;;8.52;3.45;;;;;;;;;;5049285;28;20021;-71
2021/10/22 05:44:47;;;;;;;7.35;3.35;;;;;;;;;;5051035;28;20025;-71
2021/10/22 05:47:14;;;;;;;10.60;3.35;;;;;;;;;;5049941;28;20063;-71
2021/10/22 05:49:42;;;;;;;7.45;3.20;;;;;;;;;;5048855;28;20035;-71
2021/10/22 05:52:08;;;;;;;7.00;3.10;;;;;;;;;;5049004;28;20024;-71
2021/10/22 05:54:34;;;;;;;5.82;2.45;;;;;;;;;;5048514;28;20033;-71
2021/10/22 05:57:00;;;;;;;9.15;2.70;;;;;;;;;;5049866;28;20047;-71
2021/10/22 05:59:26;;;;;;;6.30;2.78;;;;;;;;;;5051647;28;20094;-70
2021/10/22 06:01:53;;;;;;;6.85;2.92;;;;;;;;;;5048203;28;20037;-70
2021/10/22 06:04:19;;;;;;;7.50;3.33;;;;;;;;;;5048900;28;20170;-70
2021/10/22 06:06:45;;;;;;;8.07;3.20;;;;;;;;;;5048341;28;20511;-71
2021/10/22 06:09:12;;;;;;;63.13;4.10;;;;;;;;;;5048587;28;20476;-67
2021/10/22 06:11:38;;;;;;;6.82;2.95;;;;;;;;;;5051758;28;20023;-67
2021/10/22 06:14:07;;;;;;;7.93;3.13;;;;;;;;;;5050363;28;20060;-67
2021/10/22 06:16:33;;;;;;;6.60;3.15;;;;;;;;;;5047689;28;20044;-67
2021/10/22 06:19:02;;;;;;;6.57;2.70;;;;;;;;;;5048534;28;20033;-67
2021/10/22 06:21:39;;;;;;;10.63;2.95;;;;;;;;;;5048695;28;20028;-67
2021/10/22 06:24:05;;;;;;;9.70;3.25;;;;;;;;;;5048334;28;20033;-67
2021/10/22 06:26:38;;;;;;;7.10;2.90;;;;;;;;;;5051525;28;20029;-67
2021/10/22 06:29:05;;;;;;;6.25;2.90;;;;;;;;;;5050404;28;20536;-67
2021/10/22 06:31:31;;;;;;;7.85;2.90;;;;;;;;;;5048405;28;20047;-67
2021/10/22 06:33:58;;;;;;;5.72;2.72;;;;;;;;;;5048064;28;20412;-67
2021/10/22 06:36:24;;;;;;;5.80;3.17;;;;;;;;;;5047805;28;20093;-67
2021/10/22 06:38:50;;;;;;;7.05;3.45;;;;;;;;;;5049922;28;20021;-67
2021/10/22 06:41:17;;;;;;;7.65;3.20;;;;;;;;;;5048721;28;20399;-67
2021/10/22 06:43:43;;;;;;;7.05;3.38;;;;;;;;;;5049358;28;20025;-67
2021/10/22 06:46:10;;;;;;;7.85;3.10;;;;;;;;;;5048102;28;20029;-67
2021/10/22 06:48:36;;;;;;;5.35;3.00;;;;;;;;;;5047907;28;20024;-67
2021/10/22 06:51:03;;;;;;;9.48;3.97;;;;;;;;;;5047067;28;20568;-67
2021/10/22 06:53:29;;;;;;;6.32;3.30;;;;;;;;;;5050994;28;20419;-67
2021/10/22 06:55:55;;;;;;;6.90;3.33;;;;;;;;;;5047692;28;20037;-67
2021/10/22 06:58:21;;;;;;;13.05;3.45;;;;;;;;;;5047688;28;20043;-67
2021/10/22 07:00:50;;;;;;;9.25;3.33;;;;;;;;;;5047425;28;20025;-68
2021/10/22 07:03:20;;;;;;;8.10;3.45;;;;;;;;;;5048052;28;20033;-67
2021/10/22 07:08:12;;;;;;;6.80;3.00;;;;;;;;;;5048933;28;20470;-67
2021/10/22 07:10:39;;;;;;;7.13;3.03;;;;;;;;;;5047911;28;20086;-67
2021/10/22 07:13:05;;;;;;;11.98;3.97;;;;;;;;;;5047735;28;20048;-68
2021/10/22 07:15:31;;;;;;;9.95;3.55;;;;;;;;;;5047208;28;20192;-67
2021/10/22 07:18:00;;;;;;;8.43;3.17;;;;;;;;;;5049231;28;20456;-67
2021/10/22 07:20:26;;;;;;;;;;;;;;;;;;5050087;28;20021;-65
2021/10/22 07:22:54;;;;;;;4.03;2.60;;;;;;;;;;5047910;28;20206;-67
2021/10/22 07:25:21;;;;;;;5.30;2.40;;;;;;;;;;5047795;28;20091;-68
2021/10/22 07:27:48;;;;;;;5.13;2.40;;;;;;;;;;5047339;28;20536;-67
2021/10/22 07:30:14;;;;;;;6.53;2.75;;;;;;;;;;5047749;28;20026;-67
2021/10/22 07:32:40;;;;;;;5.95;3.17;;;;;;;;;;5050298;28;20049;-67
2021/10/22 07:35:07;;;;;;;5.00;2.78;;;;;;;;;;5047758;28;20074;-67
2021/10/22 07:37:33;;;;;;;5.68;3.08;;;;;;;;;;5047567;28;20075;-66
2021/10/22 07:39:59;;;;;;;7.25;2.65;;;;;;;;;;5047160;28;20043;-66
2021/10/22 07:42:26;;;;;;;6.50;4.30;;;;;;;;;;5047623;28;20037;-66
2021/10/22 07:44:55;;;;;;;7.45;4.43;;;;;;;;;;5049918;28;20033;-68
2021/10/22 07:47:25;;;;;;;7.53;4.30;;;;;;;;;;5049007;28;20509;-68
2021/10/22 07:49:51;;;;;;;5.95;4.05;;;;;;;;;;5047321;28;20036;-68
2021/10/22 07:52:18;;;;;;;10.15;5.30;;;;;;;;;;5047805;28;20599;-68
2021/10/22 07:54:45;;;;;;;6.13;3.90;;;;;;;;;;5049994;28;20099;-68
2021/10/22 07:57:12;;;;;;;5.57;2.63;;;;;;;;;;5050697;28;20489;-68
2021/10/22 07:59:38;;;;;;;4.35;2.58;;;;;;;;;;5054299;28;20029;-68
2021/10/22 08:02:14;;;;;;;7.88;2.90;;;;;;;;;;5052930;28;20124;-68
2021/10/22 08:04:47;;;;;;;4.93;2.72;;;;;;;;;;5050322;28;20017;-68
2021/10/22 08:07:14;;;;;;;4.28;2.42;;;;;;;;;;5050694;28;20029;-69
2021/10/22 08:09:44;;;;;;;6.43;2.88;;;;;;;;;;5052234;28;20106;-69
2021/10/22 08:12:14;;;;;;;7.10;2.50;;;;;;;;;;5050521;28;20498;-69
2021/10/22 08:14:41;;;;;;;5.28;2.72;;;;;;;;;;5053786;28;20104;-70
2021/10/22 08:17:07;;;;;;;4.85;2.60;;;;;;;;;;5052333;28;20029;-69
2021/10/22 08:19:33;;;;;;;4.80;2.25;;;;;;;;;;5051572;28;20060;-70
2021/10/22 08:24:32;;;;;;;4.70;2.38;;;;;;;;;;5052178;28;20025;-68
2021/10/22 08:27:00;;;;;;;5.60;2.45;;;;;;;;;;5051871;28;20045;-69
2021/10/22 08:29:27;;;;;;;5.50;2.35;;;;;;;;;;5053578;28;20132;-69
2021/10/22 08:31:53;;;;;;;5.40;2.25;;;;;;;;;;5050964;28;20032;-70
2021/10/22 08:34:19;;;;;;;5.57;2.50;;;;;;;;;;5050964;28;20069;-70
2021/10/22 08:36:45;;;;;;;5.00;2.20;;;;;;;;;;5051293;28;20044;-70
2021/10/22 08:39:12;;;;;;;5.55;2.60;;;;;;;;;;5051093;28;20025;-70
2021/10/22 08:41:38;;;;;;;4.30;2.10;;;;;;;;;;5053364;28;20121;-70
2021/10/22 08:44:05;;;;;;;3.65;2.35;;;;;;;;;;5050555;28;20025;-70
2021/10/22 08:46:34;;;;;;;6.72;2.38;;;;;;;;;;5048129;28;20110;-70
2021/10/22 08:49:02;;;;;;;4.63;2.97;;;;;;;;;;5049565;28;20031;-70
2021/10/22 08:51:28;;;;;;;4.70;2.40;;;;;;;;;;5050169;28;20485;-70
2021/10/22 08:53:54;;;;;;;5.05;2.17;;;;;;;;;;5051263;28;20033;-70
2021/10/22 08:56:21;;;;;;;3.67;2.10;;;;;;;;;;5052597;28;20100;-71
2021/10/22 08:58:47;;;;;;;8.63;2.78;;;;;;;;;;5050696;28;20383;-70
2021/10/22 09:01:14;;;;;;;6.90;3.30;;;;;;;;;;5051274;28;20104;-70
2021/10/22 09:03:40;;;;;;;5.35;2.90;;;;;;;;;;5049679;28;20362;-70
2021/10/22 09:06:13;;;;;;;6.25;2.72;;;;;;;;;;5051346;28;20095;-69
2021/10/22 09:08:40;;;;;;;7.05;2.80;;;;;;;;;;5052036;28;20025;-70
2021/10/22 09:11:18;;;;;;;6.05;3.22;;;;;;;;;;5050167;28;20044;-70
2021/10/22 09:13:44;;;;;;;5.95;3.10;;;;;;;;;;5049632;28;20021;-69
2021/10/22 09:16:23;;;;;;;5.70;3.10;;;;;;;;;;5048847;28;20027;-70
2021/10/22 09:18:50;;;;;;;4.97;2.50;;;;;;;;;;5049581;28;20025;-69
2021/10/22 09:21:24;;;;;;;7.25;3.10;;;;;;;;;;5051395;28;20416;-69
2021/10/22 09:23:50;;;;;;;9.05;2.97;;;;;;;;;;5051057;28;20021;-70
2021/10/22 09:26:22;;;;;;;5.70;2.20;;;;;;;;;;5052319;28;20029;-69
2021/10/22 09:28:48;;;;;;;5.50;2.60;;;;;;;;;;5051254;28;20020;-69
2021/10/22 09:31:16;;;;;;;6.07;2.58;;;;;;;;;;5049662;28;20420;-69
2021/10/22 09:33:56;;;;;;;5.73;2.50;;;;;;;;;;5050738;28;20037;-69
2021/10/22 09:36:42;;;;;;;4.13;2.17;;;;;;;;;;5048607;28;20293;-71
2021/10/22 09:39:13;;;;;;;6.70;2.90;;;;;;;;;;5050217;28;20393;-71
2021/10/22 09:41:40;;;;;;;4.60;2.20;;;;;;;;;;5049384;28;20151;-70
2021/10/22 09:44:39;;;;;;;6.85;2.33;;;;;;;;;;5051648;28;20079;-70
2021/10/22 09:47:05;;;;;;;4.38;1.90;;;;;;;;;;5025128;28;20040;-71
2021/10/22 09:49:32;;;;;;;5.30;2.53;;;;;;;;;;5048715;28;20039;-70
2021/10/22 09:52:00;;;;;;;4.70;2.07;;;;;;;;;;5050247;28;20029;-71
2021/10/22 09:54:33;;;;;;;7.10;2.47;;;;;;;;;;5049001;28;20021;-70
2021/10/22 09:57:04;;;;;;;6.50;2.10;;;;;;;;;;5049725;28;20090;-70
2021/10/22 09:59:31;;;;;;;4.97;2.28;;;;;;;;;;5051940;28;20445;-71
2021/10/22 10:02:01;;;;;;;4.90;1.70;;;;;;;;;;5048788;28;20480;-68
2021/10/22 10:04:28;;;;;;;4.38;1.67;;;;;;;;;;5048599;28;20017;-71
2021/10/22 10:06:58;;;;;;;4.85;1.60;;;;;;;;;;5048729;28;20033;-70
2021/10/22 10:09:27;;;;;;;7.07;2.05;;;;;;;;;;5048625;28;20027;-70
2021/10/22 10:11:54;;;;;;;4.28;1.80;;;;;;;;;;5050255;28;20392;-70
2021/10/22 10:14:23;;;;;;;2.92;1.77;;;;;;;;;;5049787;28;20028;-70
2021/10/22 10:16:49;;;;;;;4.03;1.63;;;;;;;;;;5048394;28;20804;-70
2021/10/22 10:19:21;;;;;;;4.32;1.50;;;;;;;;;;5048413;28;20143;-69
2021/10/22 10:21:55;;;;;;;4.38;1.40;;;;;;;;;;5047636;28;20039;-70
2021/10/22 10:24:28;;;;;;;2.70;1.40;;;;;;;;;;5048626;28;20033;-70
2021/10/22 10:27:23;;;;;;;4.28;1.60;;;;;;;;;;5050425;28;20053;-69
2021/10/22 10:29:50;;;;;;;2.90;1.30;;;;;;;;;;5050238;28;20036;-70
2021/10/22 10:32:18;;;;;;;3.72;1.23;;;;;;;;;;5040223;28;20040;-67
2021/10/22 10:34:50;;;;;;;1.73;1.13;;;;;;;;;;5040982;28;20029;-67
2021/10/22 10:37:20;;;;;;;1.75;0.90;;;;;;;;;;5046566;28;20120;-67
2021/10/22 10:39:50;;;;;;;3.67;1.25;;;;;;;;;;5056394;28;20021;-67
2021/10/22 10:42:21;;;;;;;2.28;1.15;;;;;;;;;;5048630;28;20435;-67
2021/10/22 10:44:48;;;;;;;3.95;1.10;;;;;;;;;;5032456;28;20097;-67
2021/10/22 10:47:29;;;;;;;2.90;0.90;;;;;;;;;;5047835;28;20459;-67
2021/10/22 10:49:55;;;;;;;4.05;0.85;;;;;;;;;;5045844;28;20124;-67
2021/10/22 10:52:40;;;;;;;3.65;0.80;;;;;;;;;;5049980;28;20033;-67
2021/10/22 10:55:30;;;;;;;3.25;0.90;;;;;;;;;;5044418;28;20032;-67
2021/10/22 10:58:09;;;;;;;1.92;0.90;;;;;;;;;;5038554;28;20468;-67
2021/10/22 11:00:35;;;;;;;2.50;0.93;;;;;;;;;;5046221;28;20442;-68
2021/10/22 11:03:01;;;;;;;2.60;1.20;;;;;;;;;;5058426;28;20049;-68
2021/10/22 11:05:53;;;;;;;2.80;0.90;;;;;;;;;;5048887;28;20021;-67
2021/10/22 11:08:31;;;;;;;2.63;0.80;;;;;;;;;;5049088;28;20021;-67
2021/10/22 11:10:59;;;;;;;3.20;0.88;;;;;;;;;;5049038;28;20056;-69
2021/10/22 11:13:25;;;;;;;;;;;;;;;;;;5050216;28;20043;-69
2021/10/22 11:15:51;;;;;;;2.08;0.70;;;;;;;;;;5047988;28;19996;-69
2021/10/22 11:18:20;;;;;;;2.38;0.98;;;;;;;;;;5047480;28;20497;-69
2021/10/22 11:20:48;;;;;;;3.33;0.93;;;;;;;;;;5049574;28;20063;-69
2021/10/22 11:23:14;;;;;;;4.40;0.85;;;;;;;;;;5051533;28;20025;-69
2021/10/22 11:25:43;;;;;;;1.25;0.73;;;;;;;;;;5049579;28;20017;-69
2021/10/22 11:28:13;;;;;;;2.50;0.80;;;;;;;;;;5051043;28;20477;-69
2021/10/22 11:30:54;;;;;;;3.03;1.20;;;;;;;;;;5053681;28;20017;-69
2021/10/22 11:33:20;;;;;;;2.83;1.00;;;;;;;;;;5053995;28;20041;-70
2021/10/22 11:35:47;;;;;;;1.80;0.95;;;;;;;;;;5053086;28;20040;-69
2021/10/22 11:38:13;;;;;;;2.83;0.90;;;;;;;;;;5054970;28;20024;-69
2021/10/22 11:40:39;;;;;;;3.00;1.00;;;;;;;;;;5052934;28;20418;-69
2021/10/22 11:43:10;;;;;;;2.30;0.77;;;;;;;;;;5053550;28;20033;-70
2021/10/22 11:45:36;;;;;;;1.90;0.80;;;;;;;;;;5051586;28;20021;-69
2021/10/22 11:48:02;;;;;;;2.95;0.90;;;;;;;;;;5051641;28;20051;-69
2021/10/22 11:50:33;;;;;;;1.92;0.80;;;;;;;;;;5053873;28;20037;-69
2021/10/22 11:53:11;;;;;;;4.93;1.00;;;;;;;;;;5055384;28;20028;-70
2021/10/22 11:55:38;;;;;;;3.80;1.00;;;;;;;;;;5053616;28;20029;-70
2021/10/22 11:58:11;;;;;;;3.95;1.17;;;;;;;;;;5051109;28;20043;-69
2021/10/22 12:00:38;;;;;;;2.83;1.10;;;;;;;;;;5050939;28;20107;-69
2021/10/22 12:03:06;;;;;;;2.80;1.03;;;;;;;;;;5062819;28;20030;-69
2021/10/22 12:05:33;;;;;;;3.58;1.10;;;;;;;;;;5053286;28;20025;-70
2021/10/22 12:07:59;;;;;;;12.07;1.27;;;;;;;;;;5025750;28;20024;-69
2021/10/22 12:10:25;;;;;;;4.25;1.00;;;;;;;;;;5046705;28;20040;-70
2021/10/22 12:12:53;;;;;;;3.83;1.20;;;;;;;;;;5052541;28;20033;-69
2021/10/22 12:15:19;;;;;;;1.85;1.13;;;;;;;;;;5050318;28;20017;-70
2021/10/22 12:17:46;;;;;;;3.70;1.30;;;;;;;;;;5062900;28;20149;-70
2021/10/22 12:20:12;;;;;;;2.75;1.10;;;;;;;;;;5051226;28;20025;-70
2021/10/22 12:22:39;;;;;;;2.25;1.30;;;;;;;;;;5050034;28;20044;-70
2021/10/22 12:25:20;;;;;;;2.88;1.10;;;;;;;;;;5049884;28;20029;-70
2021/10/22 12:27:56;;;;;;;2.95;1.20;;;;;;;;;;5049103;28;20507;-69
2021/10/22 12:30:23;;;;;;;3.85;1.35;;;;;;;;;;5050224;28;20485;-69
2021/10/22 12:32:51;;;;;;;3.28;1.70;;;;;;;;;;5050538;28;20095;-69
2021/10/22 12:35:18;;;;;;;3.45;1.63;;;;;;;;;;5052807;28;20052;-69
2021/10/22 12:37:46;;;;;;;8.13;1.90;;;;;;;;;;5048341;28;20024;-69
2021/10/22 12:40:12;;;;;;;;;;;;;;;;;;5049136;28;20036;-70
2021/10/22 12:42:39;;;;;;;6.57;1.90;;;;;;;;;;5048665;28;19905;-70
2021/10/22 12:45:22;;;;;;;3.72;1.75;;;;;;;;;;5050728;28;20025;-70
2021/10/22 12:47:48;;;;;;;3.45;1.83;;;;;;;;;;5050398;28;20049;-69
2021/10/22 12:50:16;;;;;;;4.28;1.90;;;;;;;;;;5049198;28;20036;-69
2021/10/22 12:52:42;;;;;;;3.30;1.88;;;;;;;;;;5048601;28;20055;-69
2021/10/22 12:55:20;;;;;;;4.68;1.90;;;;;;;;;;5047814;28;20029;-70
2021/10/22 12:57:46;;;;;;;3.83;1.80;;;;;;;;;;5049606;28;20476;-71
2021/10/22 13:00:23;;;;;;;3.05;1.70;;;;;;;;;;5048473;28;20032;-70
2021/10/22 13:02:50;;;;;;;3.78;1.70;;;;;;;;;;5050213;28;20505;-69
2021/10/22 13:05:22;;;;;;;4.05;1.90;;;;;;;;;;5048447;28;20064;-70
2021/10/22 13:08:17;;;;;;;4.53;1.50;;;;;;;;;;5059365;28;20028;-70
2021/10/22 13:13:20;;;;;;;2.92;1.50;;;;;;;;;;5048545;28;20033;-70
2021/10/22 13:21:00;;;;;;;3.67;1.90;;;;;;;;;;5050032;28;20039;-70
2021/10/22 13:23:26;;;;;;;4.13;1.88;;;;;;;;;;5050642;28;20032;-70
2021/10/22 13:25:52;;;;;;;5.93;1.90;;;;;;;;;;5049130;28;20027;-69
2021/10/22 13:28:22;;;;;;;6.15;2.08;;;;;;;;;;5051480;28;20104;-69
2021/10/22 13:31:03;;;;;;;8.32;2.00;;;;;;;;;;5048896;28;20480;-69
2021/10/22 13:33:29;;;;;;;5.40;2.03;;;;;;;;;;5048320;28;20033;-68
2021/10/22 13:35:56;;;;;;;6.00;2.90;;;;;;;;;;5050465;28;20096;-68
2021/10/22 13:38:22;;;;;;;5.43;2.50;;;;;;;;;;5064921;28;20132;-68
2021/10/22 13:40:48;;;;;;;5.80;2.00;;;;;;;;;;5049309;28;20395;-68
2021/10/22 13:43:14;;;;;;;7.88;2.00;;;;;;;;;;5047790;28;20507;-70
2021/10/22 13:45:40;;;;;;;4.40;2.22;;;;;;;;;;5048369;28;20029;-70
2021/10/22 13:48:08;;;;;;;3.78;2.00;;;;;;;;;;5054862;28;20563;-70
2021/10/22 13:50:34;;;;;;;8.65;2.78;;;;;;;;;;5051466;28;20299;-70
2021/10/22 13:53:00;;;;;;;5.15;2.75;;;;;;;;;;5047759;28;20452;-70
2021/10/22 13:55:26;;;;;;;7.43;2.75;;;;;;;;;;5047262;28;20041;-70
2021/10/22 13:57:52;;;;;;;7.80;4.25;;;;;;;;;;5045291;28;20045;-70
2021/10/22 14:00:19;;;;;;;6.78;3.40;;;;;;;;;;5048125;28;20066;-69
2021/10/22 14:02:45;;;;;;;4.93;2.53;;;;;;;;;;5050325;28;20021;-69
2021/10/22 14:05:11;;;;;;;12.60;5.53;;;;;;;;;;5050579;28;20400;-70
2021/10/22 14:07:37;;;;;;;6.28;3.30;;;;;;;;;;5057878;28;20021;-70
2021/10/22 14:10:04;;;;;;;7.60;3.00;;;;;;;;;;5056437;28;20028;-70
2021/10/22 14:12:46;;;;;;;7.40;3.72;;;;;;;;;;5047686;28;20479;-70
2021/10/22 14:31:17;;;;;;;15.55;6.38;;;;;;;;;;5047310;28;20086;-70
2021/10/22 14:33:43;;;;;;;11.93;7.25;;;;;;;;;;5046894;28;20036;-70
2021/10/22 14:36:09;;;;;;;30.95;20.42;;;;;;;;;;5047553;28;20060;-69
2021/10/22 14:38:36;;;;;;;19.08;10.98;;;;;;;;;;5053738;28;20060;-70
2021/10/22 14:41:02;;;;;;;15.07;7.15;;;;;;;;;;5046962;28;20489;-69
2021/10/22 14:43:39;;;;;;;15.35;8.60;;;;;;;;;;5047034;28;20112;-70
2021/10/22 14:48:38;;;;;;;16.55;9.18;;;;;;;;;;5036122;28;20441;-70
2021/10/22 14:51:07;;;;;;;15.43;7.57;;;;;;;;;;5037573;28;20108;-70
2021/10/22 14:56:00;;;;;;;59.15;34.03;;;;;;;;;;5045587;28;20032;-70
2021/10/22 14:58:26;;;;;;;43.40;27.98;;;;;;;;;;5052388;28;20072;-68
2021/10/22 15:00:53;;;;;;;35.90;22.42;;;;;;;;;;5040000;28;20033;-61
2021/10/22 15:03:19;;;;;;;17.92;9.73;;;;;;;;;;5043596;28;20024;-69
2021/10/22 15:05:46;;;;;;;43.65;20.27;;;;;;;;;;5048082;28;20574;-67
2021/10/22 15:08:15;;;;;;;31.05;14.98;;;;;;;;;;5061731;28;20116;-68
2021/10/22 15:10:41;;;;;;;19.30;10.18;;;;;;;;;;5046859;28;20033;-68
2021/10/22 15:13:08;;;;;;;18.60;9.63;;;;;;;;;;5031608;28;20025;-65
2021/10/22 15:15:34;;;;;;;14.85;8.07;;;;;;;;;;5045806;28;20017;-68
2021/10/22 15:18:00;;;;;;;16.30;7.70;;;;;;;;;;5057387;28;20080;-67